KSUS

Spirit of St Louis Airport

St Louis, Missouri, USA
METAR KSUS 182254Z 35003KT 10SM FEW055 30/19 A2993 RMK AO2 SLP127 T03000194
Observed Flight Rules
Aug-18 @ 22:54 UTC (52 minutes ago) Visual Flight Rules
Wind Visibility Clouds
350° at 3 knots 10 miles
  • Few at 5,500' AGL
Temperatures Readings
Current 30°C / 86°F
Dewpoint 19°C / 66°F
Humidity 52%
Altimeter 29.93" Hg
Pressure 1012.7 hPa
Elevation 141
METAR KSUS 182254Z 35003KT 10SM FEW055 30/19 A2993 RMK AO2 SLP127 T03000194
Observed Flight Rules
Aug-18 @ 22:54 UTC
(52 minutes ago)
VFR
Wind Visibility
350° at 3 knots 10 miles
Clouds
  • Few at 5,500' AGL
Temperature Dewpoint
30°C / 86°F 19°C / 66°F
Humidity Altimeter Pressure
52% 29.93" Hg 1012.7 hPa